Time;durP1;ratioP1;P1;durP2;ratioP2;P2;SDS_P1;SDS_P2;PMS_P1;PMS_P2;Temp;Humidity;BMP_temperature;BMP_pressure;BME280_temperature;BME280_humidity;BME280_pressure;Samples;Min_cycle;Max_cycle;Signal;HPM_P1;HPM_P2
2022/09/23 00:00:48;;;;;;;2.47;1.63;;;12.30;99.90;;;;;;5082288;28;20267;-71
2022/09/23 00:03:19;;;;;;;2.50;1.50;;;12.20;99.90;;;;;;5080287;28;20211;-71
2022/09/23 00:06:06;;;;;;;1.67;1.48;;;12.30;99.90;;;;;;5071625;28;20179;-71
2022/09/23 00:08:32;;;;;;;3.40;1.52;;;12.30;99.90;;;;;;5079385;28;20177;-71
2022/09/23 00:11:06;;;;;;;2.78;1.70;;;12.30;99.90;;;;;;5082588;28;20412;-71
2022/09/23 00:13:33;;;;;;;2.17;1.40;;;12.30;99.90;;;;;;5082246;28;20168;-69
2022/09/23 00:16:10;;;;;;;1.73;1.40;;;12.20;99.90;;;;;;5083527;28;20209;-71
2022/09/23 00:18:36;;;;;;;2.08;1.50;;;12.20;99.90;;;;;;5093016;28;20167;-71
2022/09/23 00:21:04;;;;;;;1.60;1.50;;;12.20;99.90;;;;;;5083833;28;20195;-71
2022/09/23 00:23:32;;;;;;;2.20;1.50;;;12.20;99.90;;;;;;5079785;28;20161;-66
2022/09/23 00:26:00;;;;;;;2.97;1.55;;;12.20;99.90;;;;;;5084632;28;20180;-71
2022/09/23 00:28:25;;;;;;;2.75;1.75;;;12.10;99.90;;;;;;5079252;28;20264;-70
2022/09/23 00:30:53;;;;;;;2.15;1.58;;;12.20;99.90;;;;;;5069956;28;20212;-70
2022/09/23 00:33:19;;;;;;;3.17;1.70;;;12.20;99.90;;;;;;5080921;28;20177;-69
2022/09/23 00:35:46;;;;;;;2.80;1.70;;;12.20;99.90;;;;;;5081079;28;20208;-71
2022/09/23 00:38:13;;;;;;;2.00;1.48;;;12.20;99.90;;;;;;5088119;28;20180;-71
2022/09/23 00:40:45;;;;;;;2.15;1.60;;;12.20;99.90;;;;;;5070529;28;20212;-70
2022/09/23 00:43:14;;;;;;;2.38;1.90;;;12.20;99.90;;;;;;5064916;28;20196;-71
2022/09/23 00:45:43;;;;;;;5.20;1.90;;;12.10;99.90;;;;;;5091011;28;20230;-71
2022/09/23 00:48:18;;;;;;;2.03;1.63;;;12.10;99.90;;;;;;5085790;28;20478;-71
2022/09/23 00:50:49;;;;;;;2.58;1.60;;;12.20;99.90;;;;;;5071113;28;20205;-70
2022/09/23 00:53:18;;;;;;;2.40;1.67;;;12.10;99.90;;;;;;5080162;28;20164;-71
2022/09/23 00:55:50;;;;;;;2.25;1.80;;;12.10;99.90;;;;;;5080513;28;20286;-71
2022/09/23 00:58:32;;;;;;;2.58;1.70;;;12.10;99.90;;;;;;5082998;28;20168;-72
2022/09/23 01:01:00;;;;;;;2.92;1.60;;;12.10;99.90;;;;;;5075005;28;20172;-71
2022/09/23 01:03:28;;;;;;;1.83;1.55;;;12.00;99.90;;;;;;5080770;28;20271;-68
2022/09/23 01:05:55;;;;;;;1.83;1.40;;;12.00;99.90;;;;;;5080992;28;20160;-67
2022/09/23 01:08:25;;;;;;;2.13;1.58;;;12.00;99.90;;;;;;5090489;28;20171;-68
2022/09/23 01:11:09;;;;;;;3.05;1.40;;;12.00;99.90;;;;;;5094296;28;20283;-73
2022/09/23 01:14:02;;;;;;;1.63;1.40;;;12.00;99.90;;;;;;5091782;28;20173;-74
2022/09/23 01:16:50;;;;;;;2.03;1.45;;;12.10;99.90;;;;;;5084932;28;20231;-73
2022/09/23 01:19:33;;;;;;;1.95;1.42;;;12.10;99.90;;;;;;5083567;28;20188;-73
2022/09/23 01:22:33;;;;;;;2.55;1.52;;;12.10;99.90;;;;;;5099736;28;20309;-74
2022/09/23 01:25:14;;;;;;;2.10;1.63;;;12.10;99.90;;;;;;5111514;28;20259;-74
2022/09/23 01:27:55;;;;;;;1.83;1.65;;;12.10;99.90;;;;;;5090264;28;20232;-74
2022/09/23 01:30:57;;;;;;;2.22;1.50;;;12.10;99.90;;;;;;5093068;28;20161;-73
2022/09/23 01:33:47;;;;;;;1.85;1.55;;;12.10;99.90;;;;;;5095686;28;20155;-72
2022/09/23 01:36:36;;;;;;;2.08;1.40;;;12.00;99.90;;;;;;5093637;28;20203;-73
2022/09/23 01:39:33;;;;;;;2.40;1.63;;;12.00;99.90;;;;;;5094769;28;20226;-74
2022/09/23 01:42:02;;;;;;;2.05;1.63;;;12.00;99.90;;;;;;5082978;28;20169;-73
2022/09/23 01:44:41;;;;;;;2.10;1.50;;;12.00;99.90;;;;;;5078282;28;20164;-74
2022/09/23 01:47:10;;;;;;;3.17;1.60;;;12.00;99.90;;;;;;5080699;28;20207;-73
2022/09/23 01:49:57;;;;;;;2.70;1.77;;;12.00;99.90;;;;;;5089001;28;20172;-74
2022/09/23 01:52:37;;;;;;;2.45;1.60;;;11.90;99.90;;;;;;5080041;28;20173;-73
2022/09/23 01:55:14;;;;;;;3.92;1.70;;;11.90;99.90;;;;;;5076778;28;20226;-74
2022/09/23 01:58:06;;;;;;;2.25;1.80;;;11.90;99.90;;;;;;5095141;28;20250;-71
2022/09/23 02:00:39;;;;;;;2.17;1.60;;;11.90;99.90;;;;;;5089845;28;20200;-72
2022/09/23 02:03:39;;;;;;;2.87;1.50;;;11.80;99.90;;;;;;5082630;28;20181;-74
2022/09/23 02:06:13;;;;;;;1.77;1.48;;;11.80;99.90;;;;;;5086282;28;20282;-74
2022/09/23 02:08:52;;;;;;;2.50;1.42;;;11.80;99.90;;;;;;5077653;28;20212;-69
2022/09/23 02:11:20;;;;;;;2.50;1.63;;;11.80;99.90;;;;;;5104188;28;20171;-72
2022/09/23 02:14:09;;;;;;;2.47;1.67;;;11.80;99.90;;;;;;5079727;28;20258;-72
2022/09/23 02:16:42;;;;;;;2.47;1.60;;;11.70;99.90;;;;;;5092913;28;20206;-73
2022/09/23 02:19:28;;;;;;;2.10;1.50;;;11.70;99.90;;;;;;5094580;28;20399;-72
2022/09/23 02:22:04;;;;;;;2.53;1.90;;;11.70;99.90;;;;;;5105425;28;20188;-71
2022/09/23 02:24:35;;;;;;;3.17;1.63;;;11.60;99.90;;;;;;5079974;28;20179;-73
2022/09/23 02:27:19;;;;;;;1.85;1.65;;;11.60;99.90;;;;;;5094052;28;20233;-72
2022/09/23 02:29:53;;;;;;;2.40;1.83;;;11.50;99.90;;;;;;5090258;28;20188;-72
2022/09/23 02:32:22;;;;;;;2.10;1.70;;;11.50;99.90;;;;;;5089184;28;20180;-73
2022/09/23 02:35:07;;;;;;;2.47;1.73;;;11.40;99.90;;;;;;5091804;28;20199;-72
2022/09/23 02:38:11;;;;;;;1.90;1.70;;;11.40;99.90;;;;;;5089481;28;20577;-72
2022/09/23 02:40:49;;;;;;;1.93;1.70;;;11.40;99.90;;;;;;5087524;28;20195;-71
2022/09/23 02:43:28;;;;;;;2.73;1.70;;;11.30;99.90;;;;;;5085776;28;20199;-73
2022/09/23 02:45:54;;;;;;;3.10;1.67;;;11.30;99.90;;;;;;5093598;28;20171;-73
2022/09/23 02:48:29;;;;;;;2.67;1.67;;;11.20;99.90;;;;;;5090165;28;20196;-69
2022/09/23 02:50:56;;;;;;;2.07;1.57;;;11.20;99.90;;;;;;5073509;28;20172;-73
2022/09/23 02:53:23;;;;;;;2.10;1.60;;;11.20;99.90;;;;;;5110557;28;20171;-72
2022/09/23 02:55:49;;;;;;;2.27;1.70;;;11.10;99.90;;;;;;5086389;28;20203;-73
2022/09/23 02:58:17;;;;;;;2.40;1.60;;;11.10;99.90;;;;;;5089145;28;20165;-73
2022/09/23 03:00:58;;;;;;;3.00;1.53;;;11.20;99.90;;;;;;5076093;28;20206;-73
2022/09/23 03:03:33;;;;;;;2.00;1.53;;;11.10;99.90;;;;;;5077526;28;20169;-72
2022/09/23 03:06:07;;;;;;;2.90;1.53;;;11.20;99.90;;;;;;5091856;28;20190;-72
2022/09/23 03:08:58;;;;;;;1.90;1.30;;;11.20;99.90;;;;;;5081212;28;20204;-72
2022/09/23 03:11:25;;;;;;;2.57;1.77;;;11.10;99.90;;;;;;5073865;28;20263;-73
2022/09/23 03:14:03;;;;;;;1.70;1.47;;;11.10;99.90;;;;;;5077018;28;20180;-72
2022/09/23 03:17:15;;;;;;;1.80;1.40;;;11.00;99.90;;;;;;5072520;28;20284;-72
2022/09/23 03:19:49;;;;;;;1.87;1.37;;;11.10;99.90;;;;;;5050193;28;20177;-71
2022/09/23 03:22:25;;;;;;;3.03;1.57;;;11.10;99.90;;;;;;5092778;28;20156;-73
2022/09/23 03:24:53;;;;;;;4.40;1.50;;;11.10;99.90;;;;;;5083536;28;20217;-72
2022/09/23 03:27:27;;;;;;;1.80;1.53;;;11.10;99.90;;;;;;5078827;28;20239;-73
2022/09/23 03:29:55;;;;;;;1.93;1.70;;;11.00;99.90;;;;;;5096103;28;20200;-73
2022/09/23 03:32:26;;;;;;;2.23;1.73;;;11.00;99.90;;;;;;5110012;28;20183;-72
2022/09/23 03:34:54;;;;;;;2.33;1.67;;;11.00;99.90;;;;;;5096631;28;20172;-71
2022/09/23 03:37:30;;;;;;;2.37;1.77;;;11.00;99.90;;;;;;5096111;28;20264;-72
2022/09/23 03:40:19;;;;;;;2.30;1.60;;;10.90;99.90;;;;;;5094033;28;20203;-73
2022/09/23 03:42:47;;;;;;;2.17;1.67;;;10.90;99.90;;;;;;5101015;28;20195;-71
2022/09/23 03:45:18;;;;;;;2.77;1.77;;;10.90;99.90;;;;;;5092282;28;20183;-74
2022/09/23 03:47:47;;;;;;;2.47;1.90;;;10.90;99.90;;;;;;5096351;28;20176;-72
2022/09/23 03:50:20;;;;;;;2.17;1.77;;;10.90;99.90;;;;;;5116467;28;20199;-73
2022/09/23 03:52:49;;;;;;;2.60;1.60;;;10.90;99.90;;;;;;5090271;28;20191;-73
2022/09/23 03:55:20;;;;;;;2.20;1.67;;;10.90;99.90;;;;;;5086438;28;20243;-72
2022/09/23 03:57:46;;;;;;;2.10;1.70;;;10.90;99.90;;;;;;5088672;28;20417;-73
2022/09/23 04:00:15;;;;;;;3.30;1.63;;;10.80;99.90;;;;;;5096122;28;20194;-72
2022/09/23 04:02:41;;;;;;;2.23;1.70;;;10.80;99.90;;;;;;5095760;28;20226;-73
2022/09/23 04:05:11;;;;;;;3.90;1.93;;;10.80;99.90;;;;;;5093309;28;20199;-73
2022/09/23 04:07:37;;;;;;;2.17;1.70;;;10.80;99.90;;;;;;5093918;28;20176;-73
2022/09/23 04:10:04;;;;;;;3.50;1.77;;;10.80;99.90;;;;;;5077363;28;20172;-73
2022/09/23 04:12:32;;;;;;;2.07;1.80;;;10.80;99.90;;;;;;5087745;28;20232;-72
2022/09/23 04:15:01;;;;;;;2.17;1.60;;;10.80;99.90;;;;;;5088720;28;20188;-71
2022/09/23 04:17:29;;;;;;;2.80;1.60;;;10.70;99.90;;;;;;5073563;28;20200;-72
2022/09/23 04:19:54;;;;;;;2.23;1.60;;;10.70;99.90;;;;;;5119352;28;20172;-73
2022/09/23 04:22:20;;;;;;;1.93;1.60;;;10.70;99.90;;;;;;5101188;28;20224;-73
2022/09/23 04:24:46;;;;;;;5.27;2.00;;;10.70;99.90;;;;;;5092664;28;20197;-72
2022/09/23 04:27:11;;;;;;;2.47;2.00;;;10.60;99.90;;;;;;5110358;28;20186;-72
2022/09/23 04:29:37;;;;;;;1.97;1.73;;;10.60;99.90;;;;;;5079662;28;20327;-73
2022/09/23 04:32:05;;;;;;;2.47;1.70;;;10.50;99.90;;;;;;5095365;28;20215;-73
2022/09/23 04:34:30;;;;;;;2.70;1.90;;;10.50;99.90;;;;;;5075521;28;20203;-73
2022/09/23 04:36:58;;;;;;;2.50;1.70;;;10.40;99.90;;;;;;5090421;28;20208;-73
2022/09/23 04:39:29;;;;;;;2.30;1.67;;;10.40;99.90;;;;;;5093891;28;20235;-73
2022/09/23 04:41:58;;;;;;;2.10;1.80;;;10.40;99.90;;;;;;5083409;28;20193;-72
2022/09/23 04:44:25;;;;;;;1.70;1.60;;;10.30;99.90;;;;;;5081475;28;20436;-73
2022/09/23 04:46:51;;;;;;;3.43;1.73;;;10.30;99.90;;;;;;5094164;28;20168;-73
2022/09/23 04:49:17;;;;;;;2.40;1.73;;;10.30;99.90;;;;;;5076493;28;20179;-69
2022/09/23 04:51:42;;;;;;;2.60;1.77;;;10.30;99.90;;;;;;5075687;28;20196;-74
2022/09/23 04:54:13;;;;;;;3.37;2.77;;;10.30;99.90;;;;;;5089326;28;20203;-73
2022/09/23 04:56:39;;;;;;;2.90;2.20;;;10.20;99.90;;;;;;5098303;28;20188;-71
2022/09/23 04:59:10;;;;;;;4.33;3.50;;;10.20;99.90;;;;;;5088072;28;20176;-71
2022/09/23 05:01:37;;;;;;;5.57;2.90;;;10.20;99.90;;;;;;5081116;28;20228;-73
2022/09/23 05:04:12;;;;;;;5.63;2.87;;;10.20;99.90;;;;;;5084769;28;20207;-74
2022/09/23 05:06:38;;;;;;;10.00;6.63;;;10.20;99.90;;;;;;5082122;28;20227;-73
2022/09/23 05:09:06;;;;;;;15.07;11.20;;;10.20;99.90;;;;;;5093635;28;20171;-71
2022/09/23 05:11:36;;;;;;;8.53;6.43;;;10.20;99.90;;;;;;5091972;28;20195;-72
2022/09/23 05:14:02;;;;;;;6.07;4.50;;;10.20;99.90;;;;;;5092963;28;20184;-72
2022/09/23 05:16:30;;;;;;;4.63;3.47;;;10.20;99.90;;;;;;5095802;28;20222;-73
2022/09/23 05:18:59;;;;;;;3.90;3.30;;;10.20;99.90;;;;;;5091831;28;20170;-73
2022/09/23 05:21:30;;;;;;;3.33;2.80;;;10.30;99.90;;;;;;5087397;28;20215;-73
2022/09/23 05:23:59;;;;;;;3.10;2.57;;;10.20;99.90;;;;;;5078883;28;20274;-73
2022/09/23 05:26:28;;;;;;;3.53;2.50;;;10.30;99.90;;;;;;5079893;28;20252;-72
2022/09/23 05:28:54;;;;;;;6.63;5.47;;;10.30;99.90;;;;;;5093078;28;20176;-72
2022/09/23 05:31:23;;;;;;;4.30;3.30;;;10.20;99.90;;;;;;5083589;28;20199;-73
2022/09/23 05:34:00;;;;;;;4.00;2.80;;;10.20;99.90;;;;;;5093216;28;20183;-73
2022/09/23 05:36:27;;;;;;;4.40;3.20;;;10.30;99.90;;;;;;5085481;28;20349;-71
2022/09/23 05:38:58;;;;;;;3.80;2.27;;;10.20;99.90;;;;;;5087912;28;20164;-73
2022/09/23 05:41:25;;;;;;;2.87;2.40;;;10.30;99.90;;;;;;5072492;28;20239;-72
2022/09/23 05:43:52;;;;;;;3.23;2.40;;;10.20;99.90;;;;;;5074946;28;20207;-72
2022/09/23 05:46:23;;;;;;;3.27;1.97;;;10.20;99.90;;;;;;5090111;28;20179;-75
2022/09/23 05:48:53;;;;;;;4.90;3.93;;;10.20;99.90;;;;;;5088350;28;20180;-73
2022/09/23 05:51:21;;;;;;;4.47;3.33;;;10.20;99.90;;;;;;5107094;28;20203;-73
2022/09/23 05:53:47;;;;;;;4.53;3.10;;;10.30;99.90;;;;;;5085270;28;20168;-74
2022/09/23 05:56:15;;;;;;;3.50;2.93;;;10.30;99.90;;;;;;5087542;28;20203;-73
2022/09/23 05:58:43;;;;;;;3.83;2.50;;;10.40;99.90;;;;;;5080885;28;20176;-74
2022/09/23 06:01:19;;;;;;;5.33;2.60;;;10.40;99.90;;;;;;5084286;28;20406;-74
2022/09/23 06:03:47;;;;;;;5.73;2.63;;;10.40;99.90;;;;;;5083425;28;20229;-74
2022/09/23 06:06:14;;;;;;;3.60;2.60;;;10.40;99.90;;;;;;5101819;28;20239;-72
2022/09/23 06:08:40;;;;;;;3.40;2.67;;;10.40;99.90;;;;;;5095748;28;20295;-73
2022/09/23 06:11:07;;;;;;;3.27;2.43;;;10.50;99.90;;;;;;5071468;28;20467;-73
2022/09/23 06:13:38;;;;;;;3.60;2.60;;;10.50;99.90;;;;;;5092441;28;20180;-73
2022/09/23 06:16:06;;;;;;;3.13;2.23;;;10.50;99.90;;;;;;5085846;28;20199;-74
2022/09/23 06:18:36;;;;;;;4.10;2.53;;;10.50;99.90;;;;;;5072256;28;20208;-73
2022/09/23 06:21:03;;;;;;;3.00;2.20;;;10.60;99.90;;;;;;5086489;28;20260;-73
2022/09/23 06:23:31;;;;;;;2.83;2.13;;;10.60;99.90;;;;;;5091467;28;20176;-73
2022/09/23 06:26:02;;;;;;;4.50;3.20;;;10.70;99.90;;;;;;5083401;28;20203;-73
2022/09/23 06:28:39;;;;;;;7.40;3.40;;;10.70;99.90;;;;;;5090584;28;20188;-71
2022/09/23 06:31:07;;;;;;;2.83;2.20;;;10.70;99.90;;;;;;5092609;28;20184;-71
2022/09/23 06:33:36;;;;;;;3.93;2.80;;;10.80;99.90;;;;;;5093318;28;20184;-73
2022/09/23 06:36:04;;;;;;;4.43;2.57;;;10.90;99.90;;;;;;5091631;28;20195;-70
2022/09/23 06:38:35;;;;;;;4.13;2.70;;;10.90;99.90;;;;;;5093176;28;20192;-73
2022/09/23 06:41:02;;;;;;;4.28;2.33;;;10.90;99.90;;;;;;5078043;28;20195;-72
2022/09/23 06:43:30;;;;;;;3.27;2.07;;;11.00;99.90;;;;;;5085667;28;20201;-72
2022/09/23 06:46:00;;;;;;;2.88;2.28;;;11.10;99.90;;;;;;5089318;28;20171;-72
2022/09/23 06:48:27;;;;;;;2.72;2.30;;;11.10;99.90;;;;;;5092779;28;20172;-72
2022/09/23 06:50:53;;;;;;;3.45;2.33;;;11.20;99.90;;;;;;5079503;28;20181;-73
2022/09/23 06:53:23;;;;;;;2.50;1.95;;;11.20;99.90;;;;;;5084366;28;20192;-74
2022/09/23 06:56:06;;;;;;;2.17;1.90;;;11.30;99.90;;;;;;5087506;28;20234;-73
2022/09/23 06:58:33;;;;;;;2.85;2.17;;;11.40;99.90;;;;;;5092763;28;20194;-73
2022/09/23 07:01:11;;;;;;;4.50;2.28;;;11.40;99.90;;;;;;5081715;28;20191;-73
2022/09/23 07:03:41;;;;;;;2.17;1.70;;;11.50;99.90;;;;;;5099278;28;20168;-71
2022/09/23 07:06:09;;;;;;;2.83;2.20;;;11.50;99.90;;;;;;5097719;28;20184;-74
2022/09/23 07:08:35;;;;;;;2.60;2.13;;;11.60;99.90;;;;;;5096849;28;20207;-73
2022/09/23 07:11:06;;;;;;;3.55;2.13;;;11.60;99.90;;;;;;5076829;28;20173;-71
2022/09/23 07:13:35;;;;;;;3.03;2.10;;;11.70;99.90;;;;;;5090782;28;20176;-73
2022/09/23 07:16:01;;;;;;;3.63;2.25;;;11.70;99.90;;;;;;5097341;28;20204;-71
2022/09/23 07:18:29;;;;;;;3.95;2.15;;;11.80;99.90;;;;;;5089827;28;20180;-69
2022/09/23 07:21:05;;;;;;;2.47;1.88;;;11.90;99.90;;;;;;5087822;28;20172;-70
2022/09/23 07:23:32;;;;;;;3.10;2.40;;;11.90;99.90;;;;;;5097409;28;20195;-72
2022/09/23 07:26:03;;;;;;;2.72;2.30;;;12.00;99.90;;;;;;5096783;28;20175;-74
2022/09/23 07:28:29;;;;;;;2.80;2.10;;;12.10;99.90;;;;;;5095229;28;20260;-72
2022/09/23 07:30:57;;;;;;;3.30;2.17;;;12.20;99.90;;;;;;5086486;28;20188;-72
2022/09/23 07:33:22;;;;;;;3.47;2.35;;;12.20;99.90;;;;;;5079431;28;20172;-72
2022/09/23 07:35:50;;;;;;;4.13;2.15;;;12.30;99.90;;;;;;5089195;28;20211;-72
2022/09/23 07:38:18;;;;;;;3.42;2.20;;;12.40;99.90;;;;;;5075381;28;20176;-70
2022/09/23 07:40:43;;;;;;;2.78;2.28;;;12.60;99.90;;;;;;5096527;28;20168;-72
2022/09/23 07:43:12;;;;;;;3.22;2.35;;;12.70;99.90;;;;;;5096795;28;20182;-72
2022/09/23 07:45:42;;;;;;;6.50;2.20;;;12.80;99.90;;;;;;5091309;28;20191;-72
2022/09/23 07:48:10;;;;;;;3.10;2.40;;;12.90;99.90;;;;;;5097621;28;20175;-72
2022/09/23 07:50:38;;;;;;;2.90;2.20;;;13.00;99.90;;;;;;5098064;28;20182;-74
2022/09/23 07:53:07;;;;;;;3.13;2.25;;;13.10;99.90;;;;;;5096943;28;20217;-73
2022/09/23 07:55:33;;;;;;;3.38;2.40;;;13.20;99.90;;;;;;5082490;28;20197;-71
2022/09/23 07:58:02;;;;;;;3.20;1.95;;;13.30;99.90;;;;;;5077381;28;20196;-72
2022/09/23 08:00:27;;;;;;;3.92;2.03;;;13.50;99.90;;;;;;5097039;28;20164;-71
2022/09/23 08:02:55;;;;;;;3.22;2.22;;;13.60;99.90;;;;;;5088511;28;20168;-73
2022/09/23 08:05:21;;;;;;;4.63;2.33;;;13.70;99.90;;;;;;5097097;28;20202;-72
2022/09/23 08:07:49;;;;;;;2.20;2.00;;;13.90;99.90;;;;;;5091422;28;20185;-71
2022/09/23 08:10:17;;;;;;;2.75;1.90;;;14.00;99.90;;;;;;5090730;28;20275;-72
2022/09/23 08:12:44;;;;;;;2.40;2.00;;;14.10;99.90;;;;;;5091766;28;20189;-73
2022/09/23 08:15:12;;;;;;;2.10;1.73;;;14.30;99.90;;;;;;5094833;28;20203;-72
2022/09/23 08:17:38;;;;;;;2.28;1.70;;;14.40;99.90;;;;;;5097853;28;20202;-72
2022/09/23 08:20:04;;;;;;;2.28;1.60;;;14.50;99.90;;;;;;5089150;28;20204;-73
2022/09/23 08:22:29;;;;;;;2.30;1.77;;;14.60;99.90;;;;;;5078774;28;20168;-69
2022/09/23 08:24:55;;;;;;;2.40;1.75;;;14.70;99.90;;;;;;5078841;28;20173;-73
2022/09/23 08:27:23;;;;;;;2.30;1.92;;;14.80;99.90;;;;;;5090826;28;20203;-72
2022/09/23 08:29:48;;;;;;;2.00;1.80;;;15.00;99.90;;;;;;5099093;28;20164;-70
2022/09/23 08:32:14;;;;;;;2.63;1.92;;;15.10;99.90;;;;;;5099017;28;20251;-72
2022/09/23 08:34:40;;;;;;;1.70;1.58;;;15.20;99.90;;;;;;5079596;28;20239;-73
2022/09/23 08:37:11;;;;;;;3.78;1.88;;;15.40;99.90;;;;;;5075237;28;20234;-73
2022/09/23 08:39:44;;;;;;;3.17;1.83;;;15.50;99.90;;;;;;5091551;28;20195;-73
2022/09/23 08:42:30;;;;;;;3.25;1.85;;;15.70;99.90;;;;;;5098609;28;20267;-75
2022/09/23 08:45:01;;;;;;;3.17;1.70;;;15.80;99.90;;;;;;5096695;28;20210;-72
2022/09/23 08:48:04;;;;;;;4.00;1.70;;;15.90;99.90;;;;;;5096680;28;20186;-74
2022/09/23 08:50:50;;;;;;;2.00;1.73;;;16.00;99.90;;;;;;5099441;28;20156;-72
2022/09/23 08:53:28;;;;;;;3.95;1.67;;;16.10;99.90;;;;;;5070917;28;20173;-71
2022/09/23 08:55:56;;;;;;;4.55;1.67;;;16.20;99.90;;;;;;5095775;28;20213;-74
2022/09/23 08:58:55;;;;;;;2.22;1.67;;;16.30;99.90;;;;;;5089383;28;20231;-71
2022/09/23 09:01:33;;;;;;;1.88;1.40;;;16.30;99.90;;;;;;5079122;28;20175;-73
2022/09/23 09:04:13;;;;;;;1.52;1.42;;;16.40;99.90;;;;;;5098787;28;20192;-74
2022/09/23 09:06:47;;;;;;;2.47;1.67;;;16.40;99.90;;;;;;5093456;28;20196;-74
2022/09/23 09:09:48;;;;;;;1.92;1.60;;;16.40;99.90;;;;;;5079089;28;20204;-73
2022/09/23 09:12:39;;;;;;;1.80;1.48;;;16.50;99.90;;;;;;5066052;28;20443;-73
2022/09/23 09:15:13;;;;;;;2.67;1.60;;;16.50;99.90;;;;;;5078640;28;20212;-73
2022/09/23 09:18:02;;;;;;;1.95;1.30;;;16.60;99.90;;;;;;5087541;28;20181;-74
2022/09/23 09:20:42;;;;;;;1.90;1.42;;;16.70;99.90;;;;;;5063368;22;20266;-74
2022/09/23 09:23:20;;;;;;;1.40;1.30;;;16.70;99.90;;;;;;5002365;28;20183;-74
2022/09/23 09:26:04;;;;;;;3.00;1.63;;;16.80;99.90;;;;;;5002180;28;20273;-75
2022/09/23 09:28:50;;;;;;;1.88;1.50;;;16.80;99.90;;;;;;5000695;28;20267;-73
2022/09/23 09:31:32;;;;;;;3.28;1.70;;;16.90;99.90;;;;;;5005814;28;20166;-75
2022/09/23 09:34:24;;;;;;;2.33;1.50;;;16.90;99.90;;;;;;5004421;28;20170;-74
2022/09/23 09:36:56;;;;;;;2.78;1.85;;;17.10;99.90;;;;;;5002020;28;20211;-74
2022/09/23 09:39:22;;;;;;;1.83;1.33;;;17.10;99.90;;;;;;5006836;28;20195;-74
2022/09/23 09:41:59;;;;;;;2.80;1.52;;;17.20;99.90;;;;;;5008116;28;20179;-74
2022/09/23 09:44:54;;;;;;;1.67;1.38;;;17.30;99.90;;;;;;4999973;28;20421;-75
2022/09/23 09:47:46;;;;;;;1.75;1.40;;;17.40;99.90;;;;;;5020535;28;20171;-75
2022/09/23 09:50:19;;;;;;;2.53;1.40;;;17.60;99.90;;;;;;5012461;28;20227;-75
2022/09/23 09:52:45;;;;;;;2.20;1.23;;;17.90;99.90;;;;;;4992913;28;20188;-76
2022/09/23 09:55:26;;;;;;;1.45;1.30;;;18.20;99.90;;;;;;4990084;28;20211;-74
2022/09/23 09:58:02;;;;;;;1.48;1.10;;;18.50;99.90;;;;;;4993217;28;20168;-74
2022/09/23 10:00:34;;;;;;;1.73;1.20;;;18.70;99.90;;;;;;4999858;28;20198;-75
2022/09/23 10:03:12;;;;;;;1.17;1.08;;;18.90;99.90;;;;;;5000745;28;20198;-74
2022/09/23 10:05:47;;;;;;;3.35;1.55;;;19.00;99.90;;;;;;4983022;28;20199;-74
2022/09/23 10:08:36;;;;;;;1.83;1.25;;;19.00;99.90;;;;;;5013573;28;20295;-69
2022/09/23 10:11:17;;;;;;;1.48;1.08;;;19.00;99.90;;;;;;4976997;28;20239;-74
2022/09/23 10:14:16;;;;;;;1.30;1.20;;;19.00;99.90;;;;;;4982359;28;20192;-75
2022/09/23 10:16:46;;;;;;;1.63;1.00;;;19.30;99.90;;;;;;4969177;28;20230;-74
2022/09/23 10:19:24;;;;;;;1.90;1.20;;;19.60;99.90;;;;;;5000879;28;20247;-74
2022/09/23 10:21:59;;;;;;;1.63;1.33;;;19.90;99.90;;;;;;4998170;28;20192;-74
2022/09/23 10:24:40;;;;;;;1.60;1.10;;;20.30;99.90;;;;;;5010769;28;20190;-74
2022/09/23 10:27:08;;;;;;;2.53;1.40;;;20.60;99.90;;;;;;5007422;28;20211;-74
2022/09/23 10:29:52;;;;;;;1.67;1.30;;;20.80;99.90;;;;;;5011490;28;20206;-75
2022/09/23 10:32:26;;;;;;;2.13;1.50;;;20.90;99.90;;;;;;5005307;28;20232;-75
2022/09/23 10:35:01;;;;;;;2.38;1.50;;;20.90;99.90;;;;;;5021462;28;20189;-75
2022/09/23 10:37:35;;;;;;;1.88;1.42;;;20.90;99.90;;;;;;5000863;28;20333;-73
2022/09/23 10:46:44;;;;;;;2.40;1.17;;;21.10;99.90;;;;;;5022503;28;20212;-74
2022/09/23 10:49:47;;;;;;;3.67;1.85;;;21.20;99.90;;;;;;4993316;28;20194;-74
2022/09/23 10:52:46;;;;;;;1.92;1.45;;;21.40;99.90;;;;;;5002427;28;20187;-76
2022/09/23 10:55:40;;;;;;;1.77;1.40;;;21.60;99.90;;;;;;5009282;28;20190;-75
2022/09/23 10:58:58;;;;;;;2.05;1.20;;;21.80;99.90;;;;;;5002506;28;20266;-74
2022/09/23 11:01:41;;;;;;;1.42;1.10;;;22.00;99.90;;;;;;4969421;28;20280;-75
2022/09/23 11:04:06;;;;;;;1.63;1.30;;;22.20;99.90;;;;;;4990612;28;20198;-72
2022/09/23 11:06:52;;;;;;;1.20;1.10;;;22.30;99.90;;;;;;5016181;28;20185;-74
2022/09/23 11:09:45;;;;;;;1.23;1.08;;;22.40;99.90;;;;;;5013243;28;20228;-74
2022/09/23 11:12:10;;;;;;;2.47;1.13;;;22.40;99.90;;;;;;5022590;28;20179;-75
2022/09/23 11:15:07;;;;;;;1.35;1.23;;;22.40;99.90;;;;;;5024534;28;20193;-75
2022/09/23 11:18:24;;;;;;;1.33;1.05;;;22.40;99.90;;;;;;5010218;28;20197;-75
2022/09/23 11:21:10;;;;;;;1.73;1.20;;;22.50;99.90;;;;;;5007779;28;20190;-76
2022/09/23 11:23:45;;;;;;;1.83;0.95;;;22.70;99.90;;;;;;4954992;28;20198;-75
2022/09/23 11:26:33;;;;;;;1.58;1.00;;;22.80;99.90;;;;;;4999129;28;20192;-76
2022/09/23 11:29:11;;;;;;;1.35;1.00;;;23.00;99.90;;;;;;5010696;28;20225;-74
2022/09/23 11:32:09;;;;;;;2.30;1.45;;;23.10;99.90;;;;;;5019607;28;20162;-69
2022/09/23 11:35:15;;;;;;;3.88;1.40;;;23.30;99.90;;;;;;5012948;28;20206;-74
2022/09/23 11:37:47;;;;;;;1.20;1.00;;;23.50;99.90;;;;;;5008842;28;20213;-75
2022/09/23 11:40:28;;;;;;;1.88;1.20;;;23.70;99.90;;;;;;5014161;28;20244;-75
2022/09/23 11:43:12;;;;;;;1.52;1.05;;;23.90;99.90;;;;;;5005575;28;20204;-74
2022/09/23 11:45:48;;;;;;;1.30;1.00;;;24.10;99.90;;;;;;5011124;28;20173;-75
2022/09/23 11:48:26;;;;;;;1.92;1.00;;;24.30;99.90;;;;;;5014629;28;20193;-74
2022/09/23 11:50:56;;;;;;;2.47;1.02;;;24.30;99.90;;;;;;5013021;28;20166;-76
2022/09/23 11:53:33;;;;;;;1.33;1.00;;;24.40;99.90;;;;;;5012258;28;20203;-74
2022/09/23 11:56:29;;;;;;;2.47;1.20;;;24.40;99.90;;;;;;5030604;28;20190;-74
2022/09/23 11:59:10;;;;;;;1.25;1.00;;;24.30;99.90;;;;;;5017751;28;20171;-72
2022/09/23 12:01:42;;;;;;;1.25;0.88;;;24.20;99.90;;;;;;5017322;28;20167;-75
2022/09/23 12:04:34;;;;;;;1.75;1.02;;;24.10;99.90;;;;;;5016952;28;20155;-70
2022/09/23 12:07:21;;;;;;;0.93;0.80;;;24.00;99.90;;;;;;5017200;28;20238;-74
2022/09/23 12:09:59;;;;;;;2.38;1.13;;;23.90;99.90;;;;;;5014445;28;20250;-74
2022/09/23 12:12:56;;;;;;;1.23;1.05;;;23.90;99.90;;;;;;5012500;28;20301;-75
2022/09/23 12:15:45;;;;;;;1.08;0.90;;;23.90;99.90;;;;;;5022908;28;20213;-75
2022/09/23 12:18:25;;;;;;;1.63;1.00;;;23.90;99.90;;;;;;5002241;28;20199;-75
2022/09/23 12:21:03;;;;;;;1.17;0.80;;;23.90;99.90;;;;;;5008937;28;20213;-74
2022/09/23 12:24:02;;;;;;;1.60;0.80;;;23.90;99.90;;;;;;5006061;28;20170;-75
2022/09/23 12:26:31;;;;;;;1.52;1.00;;;23.80;99.90;;;;;;5006887;28;20242;-74
2022/09/23 12:29:09;;;;;;;1.50;1.00;;;23.70;99.90;;;;;;5016456;28;20170;-74
2022/09/23 12:31:37;;;;;;;1.30;0.82;;;23.60;99.90;;;;;;4991641;28;20229;-72
2022/09/23 12:34:25;;;;;;;2.42;0.95;;;23.50;99.90;;;;;;4993834;28;20191;-75
2022/09/23 12:36:51;;;;;;;0.80;0.77;;;23.40;99.90;;;;;;4998939;28;20207;-72
2022/09/23 12:39:30;;;;;;;1.63;0.80;;;23.30;99.90;;;;;;5009938;28;20238;-74
2022/09/23 12:42:04;;;;;;;1.52;0.70;;;23.10;99.90;;;;;;5022898;28;20166;-75
2022/09/23 12:44:42;;;;;;;1.17;0.80;;;23.10;99.90;;;;;;5024221;28;20189;-74
2022/09/23 12:47:20;;;;;;;3.00;1.60;;;23.10;99.90;;;;;;5014138;28;20205;-74
2022/09/23 12:49:47;;;;;;;2.22;1.10;;;23.10;99.90;;;;;;4992440;28;20215;-74
2022/09/23 12:52:17;;;;;;;1.40;1.00;;;23.00;99.90;;;;;;4996518;28;20193;-75
2022/09/23 12:54:51;;;;;;;1.55;1.00;;;23.00;99.90;;;;;;5014508;28;20229;-74
2022/09/23 12:57:32;;;;;;;1.20;0.90;;;22.90;99.90;;;;;;5013868;28;20198;-69
2022/09/23 13:00:12;;;;;;;1.00;0.90;;;22.80;99.90;;;;;;5022198;28;20206;-72
2022/09/23 13:08:46;;;;;;;1.23;0.70;;;22.60;99.90;;;;;;5024774;28;20287;-74
2022/09/23 13:11:20;;;;;;;1.33;1.00;;;22.50;99.90;;;;;;5007845;28;20175;-73
2022/09/23 13:13:48;;;;;;;2.92;1.10;;;22.40;99.90;;;;;;5006655;28;20248;-74
2022/09/23 13:16:27;;;;;;;1.00;0.90;;;22.40;99.90;;;;;;5005160;28;20202;-74
2022/09/23 13:18:53;;;;;;;1.00;0.90;;;22.30;99.90;;;;;;5009975;28;20171;-73
2022/09/23 13:21:41;;;;;;;2.20;1.00;;;22.20;99.90;;;;;;5029364;28;20247;-72
2022/09/23 13:24:18;;;;;;;1.17;0.80;;;22.10;99.90;;;;;;5006454;28;20196;-74
2022/09/23 13:27:04;;;;;;;1.40;1.08;;;22.10;99.90;;;;;;5008249;28;20206;-74
2022/09/23 13:29:33;;;;;;;1.00;0.90;;;22.00;99.90;;;;;;5009790;28;20218;-74
2022/09/23 13:32:00;;;;;;;0.98;0.80;;;22.00;99.90;;;;;;5008643;28;20233;-75
2022/09/23 13:34:33;;;;;;;1.23;1.00;;;21.90;99.90;;;;;;5006789;28;20202;-73
2022/09/23 13:37:18;;;;;;;0.95;0.80;;;21.90;99.90;;;;;;5003787;28;20351;-74